Time;durP1;ratioP1;P1;durP2;ratioP2;P2;SDS_P1;SDS_P2;PMS_P1;PMS_P2;Temp;Humidity;BMP_temperature;BMP_pressure;BME280_temperature;BME280_humidity;BME280_pressure;Samples;Min_cycle;Max_cycle;Signal;HPM_P1;HPM_P2
2021/10/04 00:01:01;;;;;;;0.63;0.50;;;;;;;;;;5095186;28;20051;-77
2021/10/04 00:03:26;;;;;;;0.57;0.57;;;;;;;;;;5094670;28;20495;-77
2021/10/04 00:05:52;;;;;;;0.82;0.60;;;;;;;;;;5095160;28;20039;-77
2021/10/04 00:08:17;;;;;;;2.88;0.77;;;;;;;;;;5094698;28;20099;-77
2021/10/04 00:10:42;;;;;;;1.50;0.60;;;;;;;;;;5094682;28;20440;-77
2021/10/04 00:13:08;;;;;;;0.93;0.80;;;;;;;;;;5094903;28;20444;-77
2021/10/04 00:15:33;;;;;;;4.70;0.60;;;;;;;;;;5093821;28;20040;-77
2021/10/04 00:18:00;;;;;;;2.70;0.63;;;;;;;;;;5093274;28;20036;-77
2021/10/04 00:20:26;;;;;;;0.63;0.50;;;;;;;;;;5094952;28;20036;-77
2021/10/04 00:22:53;;;;;;;1.80;0.88;;;;;;;;;;5094627;28;20115;-77
2021/10/04 00:25:19;;;;;;;3.95;1.10;;;;;;;;;;5094574;28;20046;-77
2021/10/04 00:27:45;;;;;;;3.10;1.10;;;;;;;;;;5094847;28;20044;-77
2021/10/04 00:30:11;;;;;;;0.57;0.57;;;;;;;;;;5086004;28;20082;-77
2021/10/04 00:32:40;;;;;;;2.85;0.50;;;;;;;;;;5074326;28;20383;-77
2021/10/04 00:35:07;;;;;;;7.65;1.02;;;;;;;;;;5073859;28;20137;-77
2021/10/04 00:37:33;;;;;;;2.25;0.70;;;;;;;;;;5074324;28;20036;-77
2021/10/04 00:39:58;;;;;;;0.70;0.70;;;;;;;;;;5072418;28;20043;-77
2021/10/04 00:42:24;;;;;;;0.60;0.60;;;;;;;;;;5072676;28;20466;-77
2021/10/04 00:44:51;;;;;;;2.78;0.85;;;;;;;;;;5073724;28;20033;-77
2021/10/04 00:47:17;;;;;;;0.70;0.70;;;;;;;;;;5073705;28;20036;-77
2021/10/04 00:49:43;;;;;;;1.02;0.70;;;;;;;;;;5072440;28;20078;-77
2021/10/04 00:52:09;;;;;;;1.73;0.63;;;;;;;;;;5073821;28;20424;-77
2021/10/04 00:54:35;;;;;;;6.43;1.23;;;;;;;;;;5073787;28;20036;-77
2021/10/04 00:57:00;;;;;;;2.13;0.70;;;;;;;;;;5073297;28;20043;-77
2021/10/04 00:59:26;;;;;;;0.63;0.63;;;;;;;;;;5074525;28;20040;-77
2021/10/04 01:01:52;;;;;;;1.83;0.90;;;;;;;;;;5093869;28;20042;-77
2021/10/04 01:04:17;;;;;;;3.45;0.63;;;;;;;;;;5093722;28;20090;-77
2021/10/04 01:06:42;;;;;;;1.88;0.65;;;;;;;;;;5093658;28;20024;-77
2021/10/04 01:09:08;;;;;;;1.00;0.73;;;;;;;;;;5091860;28;20032;-77
2021/10/04 01:11:33;;;;;;;1.67;0.70;;;;;;;;;;5092473;28;20556;-77
2021/10/04 01:13:59;;;;;;;3.00;1.00;;;;;;;;;;5093924;28;20491;-77
2021/10/04 01:16:24;;;;;;;2.70;0.82;;;;;;;;;;5093954;28;20035;-77
2021/10/04 01:18:49;;;;;;;1.90;1.20;;;;;;;;;;5093394;28;20346;-77
2021/10/04 01:21:15;;;;;;;1.92;1.00;;;;;;;;;;5093510;28;20058;-77
2021/10/04 01:23:41;;;;;;;1.48;0.80;;;;;;;;;;5093797;28;20066;-77
2021/10/04 01:26:06;;;;;;;4.85;0.82;;;;;;;;;;5093463;28;20040;-77
2021/10/04 01:28:32;;;;;;;3.40;0.82;;;;;;;;;;5093226;28;20032;-77
2021/10/04 01:30:57;;;;;;;1.85;0.60;;;;;;;;;;5093241;28;20032;-77
2021/10/04 01:33:23;;;;;;;2.97;0.75;;;;;;;;;;5093451;28;20126;-77
2021/10/04 01:35:49;;;;;;;1.42;0.80;;;;;;;;;;5093663;28;20493;-77
2021/10/04 01:38:14;;;;;;;2.60;0.70;;;;;;;;;;5093331;28;20052;-77
2021/10/04 01:40:43;;;;;;;0.70;0.70;;;;;;;;;;5093089;28;20481;-77
2021/10/04 01:43:10;;;;;;;1.13;0.63;;;;;;;;;;5092493;28;20093;-77
2021/10/04 01:45:36;;;;;;;4.65;0.82;;;;;;;;;;5093588;28;20120;-77
2021/10/04 01:48:02;;;;;;;1.75;0.77;;;;;;;;;;5093113;28;20028;-77
2021/10/04 01:50:29;;;;;;;3.28;0.70;;;;;;;;;;5093109;28;20036;-77
2021/10/04 01:52:56;;;;;;;1.73;0.55;;;;;;;;;;5093087;28;20114;-77
2021/10/04 01:55:21;;;;;;;0.60;0.60;;;;;;;;;;5093188;28;20035;-77
2021/10/04 01:57:47;;;;;;;1.83;0.52;;;;;;;;;;5093059;28;20040;-77
2021/10/04 02:00:17;;;;;;;1.08;0.68;;;;;;;;;;5092664;28;20044;-77
2021/10/04 02:02:44;;;;;;;11.57;0.95;;;;;;;;;;5093255;28;20036;-77
2021/10/04 02:05:10;;;;;;;0.90;0.50;;;;;;;;;;5092589;28;20397;-77
2021/10/04 02:07:37;;;;;;;3.83;0.75;;;;;;;;;;5092997;28;20040;-77
2021/10/04 02:10:06;;;;;;;2.90;1.00;;;;;;;;;;5092925;28;20036;-77
2021/10/04 02:12:32;;;;;;;2.67;0.98;;;;;;;;;;5091795;28;20036;-77
2021/10/04 02:14:57;;;;;;;2.67;1.17;;;;;;;;;;5093190;28;20133;-77
2021/10/04 02:17:23;;;;;;;9.45;1.20;;;;;;;;;;5093275;28;20040;-77
2021/10/04 02:19:48;;;;;;;3.42;1.10;;;;;;;;;;5092980;28;20027;-77
2021/10/04 02:22:14;;;;;;;3.40;1.20;;;;;;;;;;5096385;28;20089;-77
2021/10/04 02:24:39;;;;;;;3.83;1.25;;;;;;;;;;5097086;28;20032;-77
2021/10/04 02:27:05;;;;;;;1.73;1.10;;;;;;;;;;5097318;28;20047;-77
2021/10/04 02:29:30;;;;;;;1.38;1.10;;;;;;;;;;5095157;28;20086;-77
2021/10/04 02:31:55;;;;;;;4.55;0.90;;;;;;;;;;5097134;28;20123;-77
2021/10/04 02:34:21;;;;;;;4.95;1.23;;;;;;;;;;5096439;28;20055;-77
2021/10/04 02:36:46;;;;;;;2.58;0.95;;;;;;;;;;5097191;28;20089;-77
2021/10/04 02:39:12;;;;;;;0.93;0.93;;;;;;;;;;5095522;28;20142;-78
2021/10/04 02:41:37;;;;;;;7.28;1.20;;;;;;;;;;5097460;28;20080;-77
2021/10/04 02:44:03;;;;;;;1.17;1.08;;;;;;;;;;5096788;28;20039;-78
2021/10/04 02:46:28;;;;;;;8.43;1.30;;;;;;;;;;5098697;28;20473;-77
2021/10/04 02:48:54;;;;;;;1.95;1.00;;;;;;;;;;5095502;28;20040;-76
2021/10/04 02:51:19;;;;;;;3.35;1.00;;;;;;;;;;5096441;28;20047;-76
2021/10/04 02:53:45;;;;;;;1.10;1.00;;;;;;;;;;5096391;28;20067;-76
2021/10/04 02:56:10;;;;;;;1.83;0.80;;;;;;;;;;5094948;28;20028;-76
2021/10/04 02:58:35;;;;;;;6.55;1.13;;;;;;;;;;5096068;28;20074;-77
2021/10/04 03:01:01;;;;;;;2.63;0.95;;;;;;;;;;5095748;28;20071;-77
2021/10/04 03:03:26;;;;;;;7.97;1.67;;;;;;;;;;5094995;28;20035;-76
2021/10/04 03:05:52;;;;;;;4.10;1.00;;;;;;;;;;5094498;28;20085;-76
2021/10/04 03:08:18;;;;;;;3.13;1.20;;;;;;;;;;5094882;28;20051;-76
2021/10/04 03:10:43;;;;;;;2.97;1.83;;;;;;;;;;5096098;28;20035;-75
2021/10/04 03:13:08;;;;;;;1.05;0.90;;;;;;;;;;5095887;28;20036;-76
2021/10/04 03:15:34;;;;;;;1.08;1.00;;;;;;;;;;5095913;28;20071;-75
2021/10/04 03:18:00;;;;;;;1.10;1.10;;;;;;;;;;5094884;28;20485;-75
2021/10/04 03:20:25;;;;;;;1.38;0.90;;;;;;;;;;5095668;28;20036;-75
2021/10/04 03:22:54;;;;;;;2.97;1.00;;;;;;;;;;5095931;28;20051;-76
2021/10/04 03:25:20;;;;;;;1.15;1.08;;;;;;;;;;5077442;28;20044;-76
2021/10/04 03:27:45;;;;;;;1.48;0.75;;;;;;;;;;5095680;28;20055;-76
2021/10/04 03:30:11;;;;;;;1.35;0.98;;;;;;;;;;5094465;28;20466;-75
2021/10/04 03:32:37;;;;;;;4.97;1.23;;;;;;;;;;5095297;28;20185;-75
2021/10/04 03:35:04;;;;;;;3.53;1.00;;;;;;;;;;5095275;28;20505;-75
2021/10/04 03:37:29;;;;;;;2.03;0.98;;;;;;;;;;5095553;28;20044;-76
2021/10/04 03:39:55;;;;;;;2.90;1.48;;;;;;;;;;5094190;28;20059;-75
2021/10/04 03:42:20;;;;;;;1.52;1.02;;;;;;;;;;5095374;28;20039;-76
2021/10/04 03:44:45;;;;;;;3.10;1.25;;;;;;;;;;5094251;28;20040;-75
2021/10/04 03:47:11;;;;;;;1.10;0.80;;;;;;;;;;5095501;28;20036;-75
2021/10/04 03:49:36;;;;;;;1.77;1.00;;;;;;;;;;5094830;28;20032;-75
2021/10/04 03:52:02;;;;;;;2.90;1.13;;;;;;;;;;5094885;28;20123;-76
2021/10/04 03:54:28;;;;;;;2.65;1.40;;;;;;;;;;5095496;28;20027;-76
2021/10/04 03:56:53;;;;;;;2.28;1.83;;;;;;;;;;5095360;28;20036;-76
2021/10/04 03:59:19;;;;;;;1.33;0.90;;;;;;;;;;5095195;28;20355;-76
2021/10/04 04:01:44;;;;;;;4.25;1.00;;;;;;;;;;5094854;28;20092;-76
2021/10/04 04:04:09;;;;;;;2.78;1.02;;;;;;;;;;5093245;28;20048;-76
2021/10/04 04:06:35;;;;;;;1.35;1.10;;;;;;;;;;5094922;28;20032;-76
2021/10/04 04:09:00;;;;;;;8.13;1.10;;;;;;;;;;5094787;28;20044;-76
2021/10/04 04:11:26;;;;;;;2.08;0.95;;;;;;;;;;5095067;28;20040;-76
2021/10/04 04:13:52;;;;;;;5.90;1.25;;;;;;;;;;5095172;28;20034;-76
2021/10/04 04:16:17;;;;;;;3.03;0.85;;;;;;;;;;5076708;28;20037;-76
2021/10/04 04:18:42;;;;;;;4.80;1.08;;;;;;;;;;5094360;28;20032;-76
2021/10/04 04:21:08;;;;;;;3.10;1.10;;;;;;;;;;5094857;28;20043;-75
2021/10/04 04:23:33;;;;;;;3.85;1.20;;;;;;;;;;5094625;28;20093;-76
2021/10/04 04:25:58;;;;;;;4.95;1.20;;;;;;;;;;5094739;28;20040;-76
2021/10/04 04:28:24;;;;;;;1.67;1.00;;;;;;;;;;5094371;28;20040;-76
2021/10/04 04:30:50;;;;;;;4.15;1.50;;;;;;;;;;5094606;28;20039;-76
2021/10/04 04:33:15;;;;;;;1.88;1.10;;;;;;;;;;5094409;28;20446;-75
2021/10/04 04:35:41;;;;;;;2.38;0.85;;;;;;;;;;5094154;28;20085;-76
2021/10/04 04:38:06;;;;;;;13.25;1.30;;;;;;;;;;5094308;28;20052;-76
2021/10/04 04:40:31;;;;;;;1.08;0.98;;;;;;;;;;5094511;28;20032;-76
2021/10/04 04:42:57;;;;;;;2.60;1.50;;;;;;;;;;5094310;28;20036;-76
2021/10/04 04:45:23;;;;;;;5.90;2.13;;;;;;;;;;5093779;28;20381;-75
2021/10/04 04:47:49;;;;;;;3.53;1.50;;;;;;;;;;5093074;28;20040;-76
2021/10/04 04:50:15;;;;;;;1.20;1.10;;;;;;;;;;5092560;28;20350;-76
2021/10/04 04:52:41;;;;;;;1.15;1.10;;;;;;;;;;5094116;28;20102;-75
2021/10/04 04:55:07;;;;;;;1.65;1.48;;;;;;;;;;5094288;28;20114;-76
2021/10/04 04:57:32;;;;;;;2.05;1.20;;;;;;;;;;5093866;28;20039;-76
2021/10/04 05:00:00;;;;;;;1.15;1.05;;;;;;;;;;5093835;28;20116;-75
2021/10/04 05:02:26;;;;;;;1.75;1.10;;;;;;;;;;5094037;28;20040;-75
2021/10/04 05:04:51;;;;;;;1.90;1.30;;;;;;;;;;5093620;28;20036;-76
2021/10/04 05:07:17;;;;;;;1.67;1.45;;;;;;;;;;5093905;28;20032;-75
2021/10/04 05:09:43;;;;;;;2.25;1.23;;;;;;;;;;5093470;28;20363;-76
2021/10/04 05:12:08;;;;;;;2.50;1.33;;;;;;;;;;5093930;28;20366;-76
2021/10/04 05:14:33;;;;;;;2.35;1.23;;;;;;;;;;5093761;28;20067;-76
2021/10/04 05:16:59;;;;;;;2.20;1.20;;;;;;;;;;5092327;28;20043;-76
2021/10/04 05:19:24;;;;;;;3.85;1.50;;;;;;;;;;5093038;28;20035;-76
2021/10/04 05:21:50;;;;;;;1.65;1.10;;;;;;;;;;5093643;28;20035;-76
2021/10/04 05:24:15;;;;;;;3.60;1.10;;;;;;;;;;5093868;28;20056;-76
2021/10/04 05:26:41;;;;;;;10.27;1.33;;;;;;;;;;5093671;28;20028;-76
2021/10/04 05:29:07;;;;;;;4.32;1.25;;;;;;;;;;5088255;28;20036;-76
2021/10/04 05:31:32;;;;;;;3.80;1.10;;;;;;;;;;5073215;28;20409;-75
2021/10/04 05:33:58;;;;;;;2.60;1.15;;;;;;;;;;5073200;28;20348;-75
2021/10/04 05:36:23;;;;;;;1.55;1.10;;;;;;;;;;5073381;28;20038;-76
2021/10/04 05:38:48;;;;;;;5.75;1.10;;;;;;;;;;5073116;28;20051;-76
2021/10/04 05:41:14;;;;;;;5.07;1.38;;;;;;;;;;5073308;28;20474;-75
2021/10/04 05:43:40;;;;;;;3.75;1.42;;;;;;;;;;5071588;28;20036;-75
2021/10/04 05:46:06;;;;;;;3.78;1.08;;;;;;;;;;5077764;28;20035;-75
2021/10/04 05:48:32;;;;;;;7.82;1.20;;;;;;;;;;5082344;28;20028;-75
2021/10/04 05:50:57;;;;;;;2.67;1.13;;;;;;;;;;5082628;28;20040;-76
2021/10/04 05:53:22;;;;;;;4.25;1.00;;;;;;;;;;5081832;28;20042;-76
2021/10/04 05:55:48;;;;;;;2.20;1.08;;;;;;;;;;5086032;28;20028;-75
2021/10/04 05:58:15;;;;;;;1.48;1.17;;;;;;;;;;5088056;28;20039;-76
2021/10/04 06:00:41;;;;;;;2.35;1.50;;;;;;;;;;5096344;28;20028;-76
2021/10/04 06:03:06;;;;;;;2.70;1.20;;;;;;;;;;5097266;28;20043;-75
2021/10/04 06:05:31;;;;;;;3.65;1.33;;;;;;;;;;5096093;28;20043;-75
2021/10/04 06:07:57;;;;;;;7.43;1.52;;;;;;;;;;5097385;28;20071;-74
2021/10/04 06:10:22;;;;;;;1.88;1.17;;;;;;;;;;5095779;28;20043;-74
2021/10/04 06:12:47;;;;;;;7.00;5.43;;;;;;;;;;5097409;28;20059;-74
2021/10/04 06:15:14;;;;;;;5.50;2.97;;;;;;;;;;5097257;28;20042;-73
2021/10/04 06:17:40;;;;;;;1.38;1.27;;;;;;;;;;5096831;28;20036;-74
2021/10/04 06:20:08;;;;;;;9.73;1.58;;;;;;;;;;5096998;28;20458;-74
2021/10/04 06:22:34;;;;;;;4.65;1.10;;;;;;;;;;5097051;28;20040;-75
2021/10/04 06:24:59;;;;;;;2.40;1.20;;;;;;;;;;5097227;28;20111;-74
2021/10/04 06:27:25;;;;;;;5.53;1.13;;;;;;;;;;5097123;28;20331;-74
2021/10/04 06:29:50;;;;;;;1.83;1.23;;;;;;;;;;5096808;28;20035;-73
2021/10/04 06:32:16;;;;;;;3.47;1.15;;;;;;;;;;5096548;28;20466;-73
2021/10/04 06:34:41;;;;;;;5.93;1.30;;;;;;;;;;5096809;28;20369;-74
2021/10/04 06:37:06;;;;;;;4.03;1.50;;;;;;;;;;5096877;28;20027;-73
2021/10/04 06:39:32;;;;;;;2.25;1.50;;;;;;;;;;5096579;28;20044;-75
2021/10/04 06:41:57;;;;;;;8.02;1.30;;;;;;;;;;5096750;28;20040;-74
2021/10/04 06:44:30;;;;;;;4.10;1.58;;;;;;;;;;5095225;28;20504;-75
2021/10/04 06:46:55;;;;;;;2.80;1.40;;;;;;;;;;5096673;28;20031;-74
2021/10/04 06:49:21;;;;;;;3.40;1.08;;;;;;;;;;5096424;28;20084;-77
2021/10/04 06:51:46;;;;;;;7.88;1.27;;;;;;;;;;5097852;28;20105;-76
2021/10/04 06:54:11;;;;;;;1.00;0.90;;;;;;;;;;5097976;28;20063;-76
2021/10/04 06:56:37;;;;;;;1.77;1.10;;;;;;;;;;5096500;28;20036;-77
2021/10/04 06:59:02;;;;;;;3.83;1.40;;;;;;;;;;5096722;28;20032;-77
2021/10/04 07:01:28;;;;;;;0.95;0.90;;;;;;;;;;5096019;28;20047;-77
2021/10/04 07:03:53;;;;;;;3.58;1.30;;;;;;;;;;5096250;28;20109;-77
2021/10/04 07:06:18;;;;;;;8.00;1.25;;;;;;;;;;5094440;28;20123;-76
2021/10/04 07:08:44;;;;;;;3.72;1.00;;;;;;;;;;5097151;28;20044;-76
2021/10/04 07:11:09;;;;;;;1.23;1.02;;;;;;;;;;5096210;28;20040;-75
2021/10/04 07:13:35;;;;;;;5.38;1.05;;;;;;;;;;5095996;28;20046;-75
2021/10/04 07:16:04;;;;;;;3.92;0.98;;;;;;;;;;5094635;28;20432;-75
2021/10/04 07:18:30;;;;;;;7.05;1.40;;;;;;;;;;5095849;28;20534;-75
2021/10/04 07:20:56;;;;;;;4.28;1.40;;;;;;;;;;5094717;28;20039;-75
2021/10/04 07:23:21;;;;;;;6.32;1.60;;;;;;;;;;5095937;28;20477;-75
2021/10/04 07:25:47;;;;;;;1.85;1.17;;;;;;;;;;5095647;28;20043;-74
2021/10/04 07:28:13;;;;;;;3.47;2.20;;;;;;;;;;5095720;28;20122;-73
2021/10/04 07:30:38;;;;;;;5.15;2.50;;;;;;;;;;5095353;28;20085;-75
2021/10/04 07:33:05;;;;;;;3.55;2.05;;;;;;;;;;5095601;28;20576;-76
2021/10/04 07:35:32;;;;;;;2.78;1.95;;;;;;;;;;5095647;28;20035;-76
2021/10/04 07:37:58;;;;;;;3.20;1.90;;;;;;;;;;5094073;28;20040;-75
2021/10/04 07:40:25;;;;;;;3.40;1.60;;;;;;;;;;5095726;28;20031;-75
2021/10/04 07:42:50;;;;;;;4.30;1.58;;;;;;;;;;5094200;28;20036;-75
2021/10/04 07:45:16;;;;;;;2.03;1.50;;;;;;;;;;5095923;28;20118;-75
2021/10/04 07:47:42;;;;;;;3.45;1.80;;;;;;;;;;5094831;28;20122;-75
2021/10/04 07:50:10;;;;;;;2.63;1.52;;;;;;;;;;5096706;28;20470;-76
2021/10/04 07:52:36;;;;;;;4.18;1.90;;;;;;;;;;5094497;28;20047;-76
2021/10/04 07:55:04;;;;;;;2.10;1.90;;;;;;;;;;5095290;28;20036;-76
2021/10/04 07:57:29;;;;;;;2.63;1.88;;;;;;;;;;5094898;28;20046;-76
2021/10/04 07:59:55;;;;;;;2.78;2.00;;;;;;;;;;5094759;28;20040;-75
2021/10/04 08:02:20;;;;;;;5.65;1.70;;;;;;;;;;5094155;28;20042;-75
2021/10/04 08:04:45;;;;;;;7.75;1.50;;;;;;;;;;5095422;28;20039;-76
2021/10/04 08:07:11;;;;;;;2.15;1.20;;;;;;;;;;5095070;28;20043;-75
2021/10/04 08:09:36;;;;;;;2.45;1.60;;;;;;;;;;5095207;28;20040;-76
2021/10/04 08:12:03;;;;;;;3.42;2.05;;;;;;;;;;5095106;28;20385;-76
2021/10/04 08:14:29;;;;;;;3.85;2.70;;;;;;;;;;5095062;28;20036;-76
2021/10/04 08:16:55;;;;;;;4.55;1.92;;;;;;;;;;5093772;28;20043;-76
2021/10/04 08:19:21;;;;;;;4.82;1.77;;;;;;;;;;5093706;28;20032;-77
2021/10/04 08:21:47;;;;;;;2.45;1.70;;;;;;;;;;5094018;28;20040;-76
2021/10/04 08:24:12;;;;;;;1.85;1.50;;;;;;;;;;5094917;28;20051;-75
2021/10/04 08:26:38;;;;;;;2.33;1.83;;;;;;;;;;5094776;28;20040;-76
2021/10/04 08:29:03;;;;;;;7.30;1.67;;;;;;;;;;5094473;28;20427;-77
2021/10/04 08:31:32;;;;;;;3.20;1.50;;;;;;;;;;5094606;28;20039;-77
2021/10/04 08:34:01;;;;;;;3.03;1.48;;;;;;;;;;5094844;28;20042;-75
2021/10/04 08:36:27;;;;;;;5.07;1.20;;;;;;;;;;5093292;28;20485;-77
2021/10/04 08:38:52;;;;;;;1.65;1.45;;;;;;;;;;5093081;28;20040;-76
2021/10/04 08:41:18;;;;;;;3.72;1.25;;;;;;;;;;5094280;28;20036;-76
2021/10/04 08:43:48;;;;;;;3.05;1.20;;;;;;;;;;5094477;28;20046;-75
2021/10/04 08:46:13;;;;;;;4.22;1.30;;;;;;;;;;5092863;28;20038;-75
2021/10/04 08:48:40;;;;;;;3.20;1.30;;;;;;;;;;5094130;28;20111;-75
2021/10/04 08:51:05;;;;;;;3.85;1.33;;;;;;;;;;5092995;28;20044;-75
2021/10/04 08:53:30;;;;;;;2.78;1.60;;;;;;;;;;5094288;28;20047;-75
2021/10/04 08:55:56;;;;;;;3.83;1.50;;;;;;;;;;5094294;28;20039;-75
2021/10/04 08:58:21;;;;;;;1.90;1.20;;;;;;;;;;5092967;28;20031;-75
2021/10/04 09:00:46;;;;;;;5.32;1.50;;;;;;;;;;5094196;28;20504;-75
2021/10/04 09:03:13;;;;;;;4.07;1.83;;;;;;;;;;5093863;28;20032;-75
2021/10/04 09:05:43;;;;;;;7.28;1.88;;;;;;;;;;5094315;28;20043;-75
2021/10/04 09:08:18;;;;;;;3.70;1.70;;;;;;;;;;5093789;28;20043;-75
2021/10/04 09:10:49;;;;;;;6.47;2.03;;;;;;;;;;5093887;28;20401;-75
2021/10/04 09:13:15;;;;;;;4.53;2.25;;;;;;;;;;5093935;28;20119;-75
2021/10/04 09:15:43;;;;;;;5.65;2.33;;;;;;;;;;5093887;28;20038;-75
2021/10/04 09:18:15;;;;;;;4.90;1.70;;;;;;;;;;5093461;28;20081;-75
2021/10/04 09:21:02;;;;;;;1.65;1.30;;;;;;;;;;5093870;28;20111;-75
2021/10/04 09:23:30;;;;;;;2.25;1.40;;;;;;;;;;5093749;28;20044;-75
2021/10/04 09:25:56;;;;;;;1.40;1.05;;;;;;;;;;5093548;28;20057;-74
2021/10/04 09:28:27;;;;;;;5.63;1.60;;;;;;;;;;5093660;28;20024;-75
2021/10/04 09:30:59;;;;;;;3.63;1.40;;;;;;;;;;5092454;28;20036;-75
2021/10/04 09:33:25;;;;;;;2.08;1.30;;;;;;;;;;5092957;28;20458;-75
2021/10/04 09:35:51;;;;;;;1.75;0.90;;;;;;;;;;5093247;28;20050;-75
2021/10/04 09:38:17;;;;;;;3.92;1.33;;;;;;;;;;5093190;28;20123;-75
2021/10/04 09:40:51;;;;;;;5.50;1.10;;;;;;;;;;5093417;28;20051;-75
2021/10/04 09:43:30;;;;;;;5.55;1.40;;;;;;;;;;5092272;28;20040;-75
2021/10/04 09:46:07;;;;;;;4.72;1.35;;;;;;;;;;5093374;28;20400;-75
2021/10/04 09:48:33;;;;;;;3.15;1.17;;;;;;;;;;5093252;28;20060;-75
2021/10/04 09:51:17;;;;;;;3.35;1.20;;;;;;;;;;5093201;28;20086;-75
2021/10/04 09:54:08;;;;;;;3.22;1.45;;;;;;;;;;5093364;28;20032;-75
2021/10/04 09:56:34;;;;;;;7.53;1.38;;;;;;;;;;5093227;28;20036;-75
2021/10/04 09:58:59;;;;;;;3.80;2.40;;;;;;;;;;5093023;28;20036;-76
2021/10/04 10:01:25;;;;;;;4.25;1.30;;;;;;;;;;5091715;28;20504;-75
2021/10/04 10:03:50;;;;;;;3.13;1.02;;;;;;;;;;5092125;28;20032;-77
2021/10/04 10:06:17;;;;;;;1.77;0.68;;;;;;;;;;5093457;28;20142;-76
2021/10/04 10:08:42;;;;;;;3.00;1.20;;;;;;;;;;5094260;28;20040;-77
2021/10/04 10:11:08;;;;;;;5.35;1.20;;;;;;;;;;5093094;28;20409;-76
2021/10/04 10:13:35;;;;;;;4.38;1.10;;;;;;;;;;5093726;28;20036;-76
2021/10/04 10:16:15;;;;;;;4.18;0.70;;;;;;;;;;5093709;28;20032;-75
2021/10/04 10:18:41;;;;;;;4.20;0.90;;;;;;;;;;5094240;28;20059;-75
2021/10/04 10:21:09;;;;;;;3.13;0.90;;;;;;;;;;5094784;28;20369;-75
2021/10/04 10:23:56;;;;;;;3.85;1.20;;;;;;;;;;5094552;28;20044;-76
2021/10/04 10:26:39;;;;;;;2.50;1.08;;;;;;;;;;5093736;28;20059;-75
2021/10/04 10:29:12;;;;;;;2.88;0.80;;;;;;;;;;5093203;28;20082;-75
2021/10/04 10:31:50;;;;;;;1.60;0.85;;;;;;;;;;5093585;28;20048;-75
2021/10/04 10:34:35;;;;;;;5.55;1.15;;;;;;;;;;5094647;28;20389;-76
2021/10/04 10:37:02;;;;;;;14.05;2.50;;;;;;;;;;5098375;28;20028;-75
2021/10/04 10:39:32;;;;;;;4.95;1.17;;;;;;;;;;5099742;28;20046;-76
2021/10/04 10:42:18;;;;;;;4.40;1.00;;;;;;;;;;5102178;28;20040;-75
2021/10/04 10:44:55;;;;;;;1.90;0.75;;;;;;;;;;5099789;28;20024;-76
2021/10/04 10:47:36;;;;;;;2.90;0.90;;;;;;;;;;5100461;28;20473;-76
2021/10/04 10:50:28;;;;;;;2.30;0.80;;;;;;;;;;5105570;28;20036;-76
2021/10/04 10:52:56;;;;;;;0.70;0.60;;;;;;;;;;5100854;28;20094;-75
2021/10/04 10:55:24;;;;;;;1.50;0.80;;;;;;;;;;5099578;28;20035;-75
2021/10/04 10:57:52;;;;;;;2.67;0.77;;;;;;;;;;5100408;28;20032;-75
2021/10/04 11:00:19;;;;;;;2.10;1.13;;;;;;;;;;5081553;28;20044;-75
2021/10/04 11:02:53;;;;;;;2.63;0.98;;;;;;;;;;5096261;28;20039;-75
2021/10/04 11:05:34;;;;;;;1.27;0.68;;;;;;;;;;5096767;28;20392;-75
2021/10/04 11:08:00;;;;;;;4.18;1.23;;;;;;;;;;5097081;28;20065;-74
2021/10/04 11:10:26;;;;;;;2.03;0.63;;;;;;;;;;5096067;28;20039;-75
2021/10/04 11:13:07;;;;;;;4.57;1.15;;;;;;;;;;5096569;28;20035;-75
2021/10/04 11:15:32;;;;;;;3.70;1.08;;;;;;;;;;5099122;28;20457;-75
2021/10/04 11:17:58;;;;;;;1.25;0.65;;;;;;;;;;5096137;28;20109;-75
2021/10/04 11:20:23;;;;;;;2.70;0.70;;;;;;;;;;5095859;28;20089;-74
2021/10/04 11:22:49;;;;;;;5.68;1.63;;;;;;;;;;5095355;28;20039;-74
2021/10/04 11:25:16;;;;;;;4.82;1.10;;;;;;;;;;5096378;28;20040;-74
2021/10/04 11:27:48;;;;;;;2.35;0.90;;;;;;;;;;5095413;28;20036;-74
2021/10/04 11:30:14;;;;;;;3.85;1.00;;;;;;;;;;5095672;28;20040;-74
2021/10/04 11:32:39;;;;;;;1.95;1.00;;;;;;;;;;5095787;28;20040;-74
2021/10/04 11:35:13;;;;;;;3.05;0.82;;;;;;;;;;5094392;28;20040;-74
2021/10/04 11:37:38;;;;;;;2.25;0.82;;;;;;;;;;5095687;28;20039;-74
2021/10/04 11:40:07;;;;;;;5.07;0.73;;;;;;;;;;5095438;28;20132;-75
2021/10/04 11:42:33;;;;;;;3.40;1.08;;;;;;;;;;5095298;28;20036;-75
2021/10/04 11:45:04;;;;;;;11.15;1.00;;;;;;;;;;5094023;28;20096;-74
2021/10/04 11:47:29;;;;;;;2.63;0.80;;;;;;;;;;5094268;28;20032;-74
2021/10/04 11:49:56;;;;;;;1.73;0.90;;;;;;;;;;5094228;28;20066;-74
2021/10/04 11:52:26;;;;;;;5.25;1.45;;;;;;;;;;5095837;28;20028;-74
2021/10/04 11:54:54;;;;;;;4.10;1.27;;;;;;;;;;5094408;28;20093;-75
2021/10/04 11:57:19;;;;;;;4.55;1.58;;;;;;;;;;5096704;28;20077;-74
2021/10/04 11:59:51;;;;;;;1.95;1.15;;;;;;;;;;5095368;28;20031;-75
2021/10/04 12:02:23;;;;;;;4.68;1.73;;;;;;;;;;5095264;28;20039;-74
2021/10/04 12:04:49;;;;;;;5.50;1.20;;;;;;;;;;5095138;28;20042;-74
2021/10/04 12:07:16;;;;;;;4.57;1.60;;;;;;;;;;5095150;28;20085;-74
2021/10/04 12:09:41;;;;;;;3.15;1.52;;;;;;;;;;5094628;28;20039;-74
2021/10/04 12:12:07;;;;;;;6.25;1.23;;;;;;;;;;5095178;28;20040;-74
2021/10/04 12:14:34;;;;;;;1.90;1.00;;;;;;;;;;5094349;28;20084;-74
2021/10/04 12:17:03;;;;;;;4.85;1.05;;;;;;;;;;5094899;28;20043;-74
2021/10/04 12:19:28;;;;;;;1.92;1.17;;;;;;;;;;5095117;28;20036;-74
2021/10/04 12:21:55;;;;;;;3.83;1.13;;;;;;;;;;5095090;28;20028;-75
2021/10/04 12:24:24;;;;;;;2.33;1.17;;;;;;;;;;5094810;28;20051;-75
2021/10/04 12:27:09;;;;;;;7.32;1.48;;;;;;;;;;5094621;28;20064;-75
2021/10/04 12:29:49;;;;;;;3.15;1.20;;;;;;;;;;5094231;28;20040;-74
2021/10/04 12:32:23;;;;;;;2.25;0.90;;;;;;;;;;5093771;28;20039;-74
2021/10/04 12:34:58;;;;;;;3.10;1.02;;;;;;;;;;5094743;28;20032;-74
2021/10/04 12:37:25;;;;;;;4.32;1.10;;;;;;;;;;5094811;28;20530;-74
2021/10/04 12:39:51;;;;;;;2.80;1.13;;;;;;;;;;5094426;28;20044;-74
2021/10/04 12:42:17;;;;;;;3.05;0.95;;;;;;;;;;5094755;28;20405;-74
2021/10/04 12:44:44;;;;;;;2.97;0.77;;;;;;;;;;5094256;28;20028;-74
2021/10/04 12:47:13;;;;;;;3.03;1.10;;;;;;;;;;5094689;28;20113;-74
2021/10/04 12:49:59;;;;;;;2.75;0.80;;;;;;;;;;5094444;28;20035;-74
2021/10/04 12:52:29;;;;;;;1.98;0.85;;;;;;;;;;5094346;28;20097;-74
2021/10/04 12:54:57;;;;;;;3.60;0.90;;;;;;;;;;5094313;28;20473;-74
2021/10/04 12:57:31;;;;;;;4.00;1.23;;;;;;;;;;5094407;28;20070;-74
2021/10/04 13:00:09;;;;;;;3.33;1.27;;;;;;;;;;5093858;28;20028;-74
2021/10/04 13:02:34;;;;;;;0.90;0.57;;;;;;;;;;5094101;28;20038;-74
2021/10/04 13:05:00;;;;;;;2.35;0.82;;;;;;;;;;5093441;28;20551;-74
2021/10/04 13:07:29;;;;;;;3.20;0.70;;;;;;;;;;5093258;28;20046;-74
2021/10/04 13:09:55;;;;;;;2.38;0.65;;;;;;;;;;5093512;28;20028;-74
2021/10/04 13:12:25;;;;;;;6.25;1.08;;;;;;;;;;5092794;28;20044;-74
2021/10/04 13:14:51;;;;;;;3.75;0.80;;;;;;;;;;5092574;28;20043;-74
2021/10/04 13:17:16;;;;;;;4.43;1.30;;;;;;;;;;5093802;28;20028;-74
2021/10/04 13:19:48;;;;;;;3.13;0.90;;;;;;;;;;5093790;28;20097;-74
2021/10/04 13:22:18;;;;;;;2.20;0.80;;;;;;;;;;5093913;28;20031;-75
2021/10/04 13:24:47;;;;;;;3.22;1.10;;;;;;;;;;5093740;28;20061;-74
2021/10/04 13:27:13;;;;;;;4.30;0.70;;;;;;;;;;5093026;28;20031;-74
2021/10/04 13:29:39;;;;;;;1.92;0.70;;;;;;;;;;5073166;28;20040;-75
2021/10/04 13:32:05;;;;;;;2.95;1.08;;;;;;;;;;5073459;28;20036;-74
2021/10/04 13:34:30;;;;;;;3.95;0.73;;;;;;;;;;5073656;28;20115;-74
2021/10/04 13:36:56;;;;;;;2.88;0.98;;;;;;;;;;5073585;28;20029;-74
2021/10/04 13:39:22;;;;;;;1.67;0.73;;;;;;;;;;5072292;28;20041;-75
2021/10/04 13:41:48;;;;;;;10.77;1.48;;;;;;;;;;5074304;28;20032;-75
2021/10/04 13:44:14;;;;;;;7.03;1.13;;;;;;;;;;5074071;28;20041;-75
2021/10/04 13:46:41;;;;;;;6.47;1.00;;;;;;;;;;5074163;28;20127;-74
2021/10/04 13:49:06;;;;;;;3.15;1.02;;;;;;;;;;5073568;28;20127;-74
2021/10/04 13:51:32;;;;;;;2.95;0.65;;;;;;;;;;5073449;28;20385;-75
2021/10/04 13:53:58;;;;;;;5.80;1.05;;;;;;;;;;5072540;28;20490;-75
2021/10/04 13:56:23;;;;;;;3.55;1.40;;;;;;;;;;5074079;28;20068;-75
2021/10/04 13:58:51;;;;;;;2.45;1.00;;;;;;;;;;5086569;28;20067;-75
2021/10/04 14:01:17;;;;;;;7.93;1.10;;;;;;;;;;5092753;28;20474;-74
2021/10/04 14:03:42;;;;;;;3.30;0.70;;;;;;;;;;5094453;28;20081;-75
2021/10/04 14:06:07;;;;;;;2.72;0.80;;;;;;;;;;5094203;28;20024;-75
2021/10/04 14:08:33;;;;;;;1.75;0.60;;;;;;;;;;5094290;28;20071;-74
2021/10/04 14:10:59;;;;;;;2.00;0.70;;;;;;;;;;5094253;28;20047;-75
2021/10/04 14:13:25;;;;;;;7.13;0.80;;;;;;;;;;5093896;28;20036;-74
2021/10/04 14:15:50;;;;;;;4.63;0.75;;;;;;;;;;5094399;28;20040;-74
2021/10/04 14:18:16;;;;;;;1.88;0.75;;;;;;;;;;5098048;28;20059;-75
2021/10/04 14:20:41;;;;;;;6.25;1.00;;;;;;;;;;5098047;28;20060;-75
2021/10/04 14:23:07;;;;;;;3.88;0.70;;;;;;;;;;5097312;28;20073;-75
2021/10/04 14:25:33;;;;;;;4.00;0.93;;;;;;;;;;5097508;28;20032;-75
2021/10/04 14:27:58;;;;;;;4.82;1.42;;;;;;;;;;5097011;28;20469;-74
2021/10/04 14:30:24;;;;;;;2.72;0.75;;;;;;;;;;5097431;28;20062;-75
2021/10/04 14:32:50;;;;;;;6.00;0.93;;;;;;;;;;5097150;28;20397;-74
2021/10/04 14:35:19;;;;;;;2.53;1.38;;;;;;;;;;5095707;28;20059;-75
2021/10/04 14:37:46;;;;;;;3.50;1.17;;;;;;;;;;5096761;28;20044;-75
2021/10/04 14:40:12;;;;;;;5.68;1.00;;;;;;;;;;5095790;28;20047;-75
2021/10/04 14:42:37;;;;;;;5.00;1.48;;;;;;;;;;5097162;28;20032;-74